Fayston, Vermont
Current Conditions -  °F | °C
As of 6:17 AM on Friday 24 Oct 2014 (Local Time) from KMPV Reporting Station
Haze Haze  
Wind Chill:   Ceiling: 300
Heat Index:   Visibility: 4mi
Dew Point:   Wind: 6mph
Humidity: 100%   Direction: 300°WNW
Pressure: 29.83"   Gusts: NA
Location:  44.1924°N, 72.8443°W
Report Text: KMPV 241017Z AUTO 30005KT 4SM BR OVC003 04/04 A2983 RMK AO2 CIG 001V007 T00440044
Loading
Personal Weather Stations






























Interactive Weather Map
Tropical Storm Tracking
New forecast layout! Learn more

10-Day Weather Forecast

Advertisements
Track Severe Weather on mobile